Prather, California
Current Conditions -  °F | °C
As of 10:53 AM on Sunday 23 Nov 2014 (Local Time) from KFAT Reporting Station
Overcast Overcast  
Wind Chill: 12°   Ceiling: 1700
Heat Index: 12°   Visibility: 10mi
Dew Point:   Wind: 5mph
Humidity: 77%   Direction: 320°NW
Pressure: 30.35"   Gusts: NA
Location:  37.04°N, 119.51°W
Report Text: KFAT 231853Z 32004KT 10SM BKN017 OVC021 12/08 A3035 RMK AO2 SLP275 T01170078
Loading
Personal Weather Stations






























Interactive Weather Map New forecast layout! Learn more

10-Day Weather Forecast

Advertisements
Track Severe Weather on mobile